sensor_id;sensor_type;location;lat;lon;timestamp;P1;durP1;ratioP1;P2;durP2;ratioP2
1751;SDS011;873;47.696;8.068;2024-01-16T00:01:41;0.97;;;0.87;;
1751;SDS011;873;47.696;8.068;2024-01-16T00:04:07;1.50;;;0.73;;
1751;SDS011;873;47.696;8.068;2024-01-16T00:06:33;1.13;;;0.43;;
1751;SDS011;873;47.696;8.068;2024-01-16T00:08:58;0.90;;;0.60;;
1751;SDS011;873;47.696;8.068;2024-01-16T00:11:24;0.37;;;0.37;;
1751;SDS011;873;47.696;8.068;2024-01-16T00:13:49;1.73;;;0.63;;
1751;SDS011;873;47.696;8.068;2024-01-16T00:16:15;0.83;;;0.23;;
1751;SDS011;873;47.696;8.068;2024-01-16T00:18:41;4.20;;;0.57;;
1751;SDS011;873;47.696;8.068;2024-01-16T00:21:06;0.30;;;0.30;;
1751;SDS011;873;47.696;8.068;2024-01-16T00:23:32;0.50;;;0.40;;
1751;SDS011;873;47.696;8.068;2024-01-16T00:25:57;1.13;;;0.60;;
1751;SDS011;873;47.696;8.068;2024-01-16T00:28:23;0.67;;;0.60;;
1751;SDS011;873;47.696;8.068;2024-01-16T00:30:49;1.13;;;0.50;;
1751;SDS011;873;47.696;8.068;2024-01-16T00:33:14;6.27;;;2.70;;
1751;SDS011;873;47.696;8.068;2024-01-16T00:35:41;2.53;;;1.90;;
1751;SDS011;873;47.696;8.068;2024-01-16T00:38:07;0.52;;;0.52;;
1751;SDS011;873;47.696;8.068;2024-01-16T00:40:32;1.37;;;0.33;;
1751;SDS011;873;47.696;8.068;2024-01-16T00:42:58;0.20;;;0.20;;
1751;SDS011;873;47.696;8.068;2024-01-16T00:45:23;1.13;;;0.40;;
1751;SDS011;873;47.696;8.068;2024-01-16T00:47:49;0.03;;;0.03;;
1751;SDS011;873;47.696;8.068;2024-01-16T00:50:14;0.87;;;0.40;;
1751;SDS011;873;47.696;8.068;2024-01-16T00:52:40;0.10;;;0.10;;
1751;SDS011;873;47.696;8.068;2024-01-16T00:55:05;0.60;;;0.60;;
1751;SDS011;873;47.696;8.068;2024-01-16T00:57:31;0.10;;;0.10;;
1751;SDS011;873;47.696;8.068;2024-01-16T00:59:57;0.30;;;0.30;;
1751;SDS011;873;47.696;8.068;2024-01-16T01:02:22;2.87;;;0.87;;
1751;SDS011;873;47.696;8.068;2024-01-16T01:04:48;2.73;;;0.50;;
1751;SDS011;873;47.696;8.068;2024-01-16T01:07:13;0.37;;;0.33;;
1751;SDS011;873;47.696;8.068;2024-01-16T01:09:39;1.23;;;0.33;;
1751;SDS011;873;47.696;8.068;2024-01-16T01:12:05;0.22;;;0.17;;
1751;SDS011;873;47.696;8.068;2024-01-16T01:14:31;2.30;;;0.90;;
1751;SDS011;873;47.696;8.068;2024-01-16T01:16:57;0.07;;;0.07;;
1751;SDS011;873;47.696;8.068;2024-01-16T01:19:22;0.17;;;0.10;;
1751;SDS011;873;47.696;8.068;2024-01-16T01:21:48;0.40;;;0.37;;
1751;SDS011;873;47.696;8.068;2024-01-16T01:24:14;0.80;;;0.53;;
1751;SDS011;873;47.696;8.068;2024-01-16T01:26:43;4.05;;;0.68;;
1751;SDS011;873;47.696;8.068;2024-01-16T01:29:09;0.28;;;0.28;;
1751;SDS011;873;47.696;8.068;2024-01-16T01:31:35;1.53;;;0.47;;
1751;SDS011;873;47.696;8.068;2024-01-16T01:34:00;6.17;;;0.70;;
1751;SDS011;873;47.696;8.068;2024-01-16T01:36:26;1.50;;;0.67;;
1751;SDS011;873;47.696;8.068;2024-01-16T01:38:52;1.83;;;0.52;;
1751;SDS011;873;47.696;8.068;2024-01-16T01:41:18;3.70;;;0.90;;
1751;SDS011;873;47.696;8.068;2024-01-16T01:43:43;1.00;;;0.70;;
1751;SDS011;873;47.696;8.068;2024-01-16T01:46:10;1.40;;;1.30;;
1751;SDS011;873;47.696;8.068;2024-01-16T01:48:41;0.65;;;0.20;;
1751;SDS011;873;47.696;8.068;2024-01-16T01:51:07;0.90;;;0.75;;
1751;SDS011;873;47.696;8.068;2024-01-16T01:53:38;0.75;;;0.50;;
1751;SDS011;873;47.696;8.068;2024-01-16T01:56:05;4.20;;;0.65;;
1751;SDS011;873;47.696;8.068;2024-01-16T01:58:33;0.85;;;0.68;;
1751;SDS011;873;47.696;8.068;2024-01-16T02:01:00;1.60;;;1.05;;
1751;SDS011;873;47.696;8.068;2024-01-16T02:03:26;1.90;;;0.93;;
1751;SDS011;873;47.696;8.068;2024-01-16T02:05:55;0.20;;;0.20;;
1751;SDS011;873;47.696;8.068;2024-01-16T02:08:21;0.85;;;0.50;;
1751;SDS011;873;47.696;8.068;2024-01-16T02:10:47;0.17;;;0.15;;
1751;SDS011;873;47.696;8.068;2024-01-16T02:13:15;0.95;;;0.70;;
1751;SDS011;873;47.696;8.068;2024-01-16T02:15:40;5.37;;;1.13;;
1751;SDS011;873;47.696;8.068;2024-01-16T02:18:06;0.70;;;0.70;;
1751;SDS011;873;47.696;8.068;2024-01-16T02:20:32;0.73;;;0.50;;
1751;SDS011;873;47.696;8.068;2024-01-16T02:22:59;1.58;;;0.93;;
1751;SDS011;873;47.696;8.068;2024-01-16T02:25:29;0.93;;;0.63;;
1751;SDS011;873;47.696;8.068;2024-01-16T02:27:55;1.42;;;0.70;;
1751;SDS011;873;47.696;8.068;2024-01-16T02:30:20;0.90;;;0.47;;
1751;SDS011;873;47.696;8.068;2024-01-16T02:32:46;0.60;;;0.50;;
1751;SDS011;873;47.696;8.068;2024-01-16T02:35:11;0.27;;;0.23;;
1751;SDS011;873;47.696;8.068;2024-01-16T02:37:37;1.43;;;0.83;;
1751;SDS011;873;47.696;8.068;2024-01-16T02:40:03;0.20;;;0.13;;
1751;SDS011;873;47.696;8.068;2024-01-16T02:42:34;1.83;;;0.88;;
1751;SDS011;873;47.696;8.068;2024-01-16T02:44:59;1.83;;;1.05;;
1751;SDS011;873;47.696;8.068;2024-01-16T02:47:25;2.37;;;0.73;;
1751;SDS011;873;47.696;8.068;2024-01-16T02:49:51;0.70;;;0.40;;
1751;SDS011;873;47.696;8.068;2024-01-16T02:52:16;3.47;;;1.07;;
1751;SDS011;873;47.696;8.068;2024-01-16T02:54:42;1.43;;;0.97;;
1751;SDS011;873;47.696;8.068;2024-01-16T02:57:07;1.53;;;0.83;;
1751;SDS011;873;47.696;8.068;2024-01-16T02:59:33;0.63;;;0.53;;
1751;SDS011;873;47.696;8.068;2024-01-16T03:01:59;0.40;;;0.40;;
1751;SDS011;873;47.696;8.068;2024-01-16T03:04:24;2.70;;;0.83;;
1751;SDS011;873;47.696;8.068;2024-01-16T03:06:50;0.43;;;0.43;;
1751;SDS011;873;47.696;8.068;2024-01-16T03:09:15;1.17;;;1.00;;
1751;SDS011;873;47.696;8.068;2024-01-16T03:11:41;0.73;;;0.70;;
1751;SDS011;873;47.696;8.068;2024-01-16T03:14:06;1.23;;;1.23;;
1751;SDS011;873;47.696;8.068;2024-01-16T03:16:32;1.83;;;0.70;;
1751;SDS011;873;47.696;8.068;2024-01-16T03:18:58;1.03;;;0.90;;
1751;SDS011;873;47.696;8.068;2024-01-16T03:21:23;1.27;;;0.83;;
1751;SDS011;873;47.696;8.068;2024-01-16T03:23:49;0.87;;;0.57;;
1751;SDS011;873;47.696;8.068;2024-01-16T03:26:15;0.63;;;0.43;;
1751;SDS011;873;47.696;8.068;2024-01-16T03:28:41;3.03;;;0.90;;
1751;SDS011;873;47.696;8.068;2024-01-16T03:31:06;2.10;;;1.60;;
1751;SDS011;873;47.696;8.068;2024-01-16T03:33:32;1.00;;;0.90;;
1751;SDS011;873;47.696;8.068;2024-01-16T03:36:00;6.40;;;1.00;;
1751;SDS011;873;47.696;8.068;2024-01-16T03:38:26;2.22;;;1.90;;
1751;SDS011;873;47.696;8.068;2024-01-16T03:40:51;4.00;;;0.83;;
1751;SDS011;873;47.696;8.068;2024-01-16T03:43:17;0.20;;;0.20;;
1751;SDS011;873;47.696;8.068;2024-01-16T03:45:43;2.33;;;0.68;;
1751;SDS011;873;47.696;8.068;2024-01-16T03:48:09;1.03;;;0.80;;
1751;SDS011;873;47.696;8.068;2024-01-16T03:50:35;2.43;;;1.00;;
1751;SDS011;873;47.696;8.068;2024-01-16T03:53:01;1.65;;;0.93;;
1751;SDS011;873;47.696;8.068;2024-01-16T03:55:29;1.05;;;0.73;;
1751;SDS011;873;47.696;8.068;2024-01-16T03:57:56;0.82;;;0.73;;
1751;SDS011;873;47.696;8.068;2024-01-16T04:00:21;0.50;;;0.50;;
1751;SDS011;873;47.696;8.068;2024-01-16T04:02:47;0.53;;;0.30;;
1751;SDS011;873;47.696;8.068;2024-01-16T04:05:13;2.07;;;0.93;;
1751;SDS011;873;47.696;8.068;2024-01-16T04:07:38;1.17;;;1.03;;
1751;SDS011;873;47.696;8.068;2024-01-16T04:10:05;1.07;;;0.67;;
1751;SDS011;873;47.696;8.068;2024-01-16T04:12:31;0.35;;;0.30;;
1751;SDS011;873;47.696;8.068;2024-01-16T04:14:57;1.83;;;0.53;;
1751;SDS011;873;47.696;8.068;2024-01-16T04:17:22;2.73;;;0.80;;
1751;SDS011;873;47.696;8.068;2024-01-16T04:19:48;0.63;;;0.37;;
1751;SDS011;873;47.696;8.068;2024-01-16T04:22:14;0.60;;;0.60;;
1751;SDS011;873;47.696;8.068;2024-01-16T04:24:40;0.30;;;0.20;;
1751;SDS011;873;47.696;8.068;2024-01-16T04:27:05;1.57;;;0.43;;
1751;SDS011;873;47.696;8.068;2024-01-16T04:29:31;0.03;;;0.03;;
1751;SDS011;873;47.696;8.068;2024-01-16T04:31:56;1.13;;;0.60;;
1751;SDS011;873;47.696;8.068;2024-01-16T04:34:22;0.57;;;0.50;;
1751;SDS011;873;47.696;8.068;2024-01-16T04:36:48;0.87;;;0.40;;
1751;SDS011;873;47.696;8.068;2024-01-16T04:39:14;0.10;;;0.10;;
1751;SDS011;873;47.696;8.068;2024-01-16T04:41:39;0.27;;;0.27;;
1751;SDS011;873;47.696;8.068;2024-01-16T04:44:05;3.70;;;0.27;;
1751;SDS011;873;47.696;8.068;2024-01-16T04:46:30;0.20;;;0.10;;
1751;SDS011;873;47.696;8.068;2024-01-16T04:48:56;0.73;;;0.20;;
1751;SDS011;873;47.696;8.068;2024-01-16T04:51:21;0.20;;;0.20;;
1751;SDS011;873;47.696;8.068;2024-01-16T04:53:47;0.43;;;0.40;;
1751;SDS011;873;47.696;8.068;2024-01-16T04:56:12;0.37;;;0.37;;
1751;SDS011;873;47.696;8.068;2024-01-16T04:58:38;0.40;;;0.13;;
1751;SDS011;873;47.696;8.068;2024-01-16T05:01:04;0.43;;;0.40;;
1751;SDS011;873;47.696;8.068;2024-01-16T05:03:29;0.77;;;0.17;;
1751;SDS011;873;47.696;8.068;2024-01-16T05:05:55;0.33;;;0.30;;
1751;SDS011;873;47.696;8.068;2024-01-16T05:08:22;0.38;;;0.20;;
1751;SDS011;873;47.696;8.068;2024-01-16T05:10:47;0.10;;;0.10;;
1751;SDS011;873;47.696;8.068;2024-01-16T05:13:13;0.23;;;0.20;;
1751;SDS011;873;47.696;8.068;2024-01-16T05:15:40;0.20;;;0.20;;
1751;SDS011;873;47.696;8.068;2024-01-16T05:18:05;0.35;;;0.35;;
1751;SDS011;873;47.696;8.068;2024-01-16T05:20:31;0.60;;;0.60;;
1751;SDS011;873;47.696;8.068;2024-01-16T05:22:56;0.50;;;0.20;;
1751;SDS011;873;47.696;8.068;2024-01-16T05:25:22;3.67;;;0.32;;
1751;SDS011;873;47.696;8.068;2024-01-16T05:27:48;7.30;;;0.27;;
1751;SDS011;873;47.696;8.068;2024-01-16T05:30:16;0.20;;;0.20;;
1751;SDS011;873;47.696;8.068;2024-01-16T05:32:42;3.83;;;0.30;;
1751;SDS011;873;47.696;8.068;2024-01-16T05:35:08;0.33;;;0.33;;
1751;SDS011;873;47.696;8.068;2024-01-16T05:37:35;0.30;;;0.30;;
1751;SDS011;873;47.696;8.068;2024-01-16T05:40:01;0.65;;;0.28;;
1751;SDS011;873;47.696;8.068;2024-01-16T05:42:28;0.13;;;0.10;;
1751;SDS011;873;47.696;8.068;2024-01-16T05:44:54;0.30;;;0.30;;
1751;SDS011;873;47.696;8.068;2024-01-16T05:47:20;0.50;;;0.30;;
1751;SDS011;873;47.696;8.068;2024-01-16T05:49:45;5.67;;;2.30;;
1751;SDS011;873;47.696;8.068;2024-01-16T05:52:11;25.20;;;7.47;;
1751;SDS011;873;47.696;8.068;2024-01-16T05:54:36;17.40;;;6.43;;
1751;SDS011;873;47.696;8.068;2024-01-16T05:57:02;15.27;;;5.63;;
1751;SDS011;873;47.696;8.068;2024-01-16T05:59:28;9.47;;;3.10;;
1751;SDS011;873;47.696;8.068;2024-01-16T06:01:54;3.23;;;2.13;;
1751;SDS011;873;47.696;8.068;2024-01-16T06:04:19;0.43;;;0.37;;
1751;SDS011;873;47.696;8.068;2024-01-16T06:06:45;0.30;;;0.30;;
1751;SDS011;873;47.696;8.068;2024-01-16T06:09:13;0.98;;;0.52;;
1751;SDS011;873;47.696;8.068;2024-01-16T06:11:41;0.75;;;0.70;;
1751;SDS011;873;47.696;8.068;2024-01-16T06:14:07;2.53;;;0.40;;
1751;SDS011;873;47.696;8.068;2024-01-16T06:16:33;0.63;;;0.40;;
1751;SDS011;873;47.696;8.068;2024-01-16T06:18:58;1.17;;;0.80;;
1751;SDS011;873;47.696;8.068;2024-01-16T06:21:24;0.30;;;0.30;;
1751;SDS011;873;47.696;8.068;2024-01-16T06:23:50;0.73;;;0.70;;
1751;SDS011;873;47.696;8.068;2024-01-16T06:26:15;0.70;;;0.70;;
1751;SDS011;873;47.696;8.068;2024-01-16T06:28:41;2.33;;;1.07;;
1751;SDS011;873;47.696;8.068;2024-01-16T06:31:08;4.43;;;1.40;;
1751;SDS011;873;47.696;8.068;2024-01-16T06:33:34;2.20;;;1.52;;
1751;SDS011;873;47.696;8.068;2024-01-16T06:36:00;1.33;;;0.70;;
1751;SDS011;873;47.696;8.068;2024-01-16T06:38:25;1.30;;;1.20;;
1751;SDS011;873;47.696;8.068;2024-01-16T06:40:51;1.43;;;1.13;;
1751;SDS011;873;47.696;8.068;2024-01-16T06:43:16;11.90;;;5.87;;
1751;SDS011;873;47.696;8.068;2024-01-16T06:45:43;27.45;;;11.07;;
1751;SDS011;873;47.696;8.068;2024-01-16T06:48:09;36.13;;;16.03;;
1751;SDS011;873;47.696;8.068;2024-01-16T06:50:35;6.80;;;4.33;;
1751;SDS011;873;47.696;8.068;2024-01-16T06:53:02;0.47;;;0.40;;
1751;SDS011;873;47.696;8.068;2024-01-16T06:55:27;5.17;;;1.47;;
1751;SDS011;873;47.696;8.068;2024-01-16T06:57:53;0.23;;;0.23;;
1751;SDS011;873;47.696;8.068;2024-01-16T07:00:19;0.40;;;0.30;;
1751;SDS011;873;47.696;8.068;2024-01-16T07:02:46;0.30;;;0.30;;
1751;SDS011;873;47.696;8.068;2024-01-16T07:05:11;0.70;;;0.53;;
1751;SDS011;873;47.696;8.068;2024-01-16T07:07:37;0.73;;;0.17;;
1751;SDS011;873;47.696;8.068;2024-01-16T07:10:03;0.30;;;0.20;;
1751;SDS011;873;47.696;8.068;2024-01-16T07:12:35;0.35;;;0.35;;
1751;SDS011;873;47.696;8.068;2024-01-16T07:15:01;1.27;;;0.90;;
1751;SDS011;873;47.696;8.068;2024-01-16T07:17:26;2.83;;;2.27;;
1751;SDS011;873;47.696;8.068;2024-01-16T07:19:52;12.07;;;5.33;;
1751;SDS011;873;47.696;8.068;2024-01-16T07:22:17;7.17;;;4.33;;
1751;SDS011;873;47.696;8.068;2024-01-16T07:24:43;2.30;;;1.60;;
1751;SDS011;873;47.696;8.068;2024-01-16T07:27:08;1.30;;;0.67;;
1751;SDS011;873;47.696;8.068;2024-01-16T07:29:34;0.43;;;0.43;;
1751;SDS011;873;47.696;8.068;2024-01-16T07:31:59;0.83;;;0.43;;
1751;SDS011;873;47.696;8.068;2024-01-16T07:34:25;3.70;;;1.17;;
1751;SDS011;873;47.696;8.068;2024-01-16T07:36:51;1.23;;;1.13;;
1751;SDS011;873;47.696;8.068;2024-01-16T07:39:16;0.47;;;0.40;;
1751;SDS011;873;47.696;8.068;2024-01-16T07:41:42;0.87;;;0.50;;
1751;SDS011;873;47.696;8.068;2024-01-16T07:44:08;2.90;;;1.13;;
1751;SDS011;873;47.696;8.068;2024-01-16T07:46:33;4.60;;;1.67;;
1751;SDS011;873;47.696;8.068;2024-01-16T07:48:59;4.33;;;0.60;;
1751;SDS011;873;47.696;8.068;2024-01-16T07:51:24;5.70;;;1.30;;
1751;SDS011;873;47.696;8.068;2024-01-16T07:54:04;1.97;;;1.10;;
1751;SDS011;873;47.696;8.068;2024-01-16T07:56:31;0.73;;;0.73;;
1751;SDS011;873;47.696;8.068;2024-01-16T07:58:58;1.60;;;0.68;;
1751;SDS011;873;47.696;8.068;2024-01-16T08:01:24;0.53;;;0.53;;
1751;SDS011;873;47.696;8.068;2024-01-16T08:03:49;2.20;;;1.33;;
1751;SDS011;873;47.696;8.068;2024-01-16T08:06:15;1.43;;;1.20;;
1751;SDS011;873;47.696;8.068;2024-01-16T08:08:41;3.90;;;1.30;;
1751;SDS011;873;47.696;8.068;2024-01-16T08:11:06;2.30;;;1.10;;
1751;SDS011;873;47.696;8.068;2024-01-16T08:13:32;2.00;;;1.70;;
1751;SDS011;873;47.696;8.068;2024-01-16T08:15:58;4.30;;;2.03;;
1751;SDS011;873;47.696;8.068;2024-01-16T08:18:24;6.43;;;3.53;;
1751;SDS011;873;47.696;8.068;2024-01-16T08:20:50;1.67;;;1.45;;
1751;SDS011;873;47.696;8.068;2024-01-16T08:23:15;1.63;;;0.97;;
1751;SDS011;873;47.696;8.068;2024-01-16T08:25:41;2.93;;;0.97;;
1751;SDS011;873;47.696;8.068;2024-01-16T08:28:06;1.53;;;1.07;;
1751;SDS011;873;47.696;8.068;2024-01-16T08:30:32;7.00;;;1.33;;
1751;SDS011;873;47.696;8.068;2024-01-16T08:32:57;1.40;;;1.07;;
1751;SDS011;873;47.696;8.068;2024-01-16T08:35:23;1.50;;;1.40;;
1751;SDS011;873;47.696;8.068;2024-01-16T08:37:49;9.83;;;5.53;;
1751;SDS011;873;47.696;8.068;2024-01-16T08:40:15;5.60;;;3.25;;
1751;SDS011;873;47.696;8.068;2024-01-16T08:42:41;1.07;;;0.70;;
1751;SDS011;873;47.696;8.068;2024-01-16T08:45:07;1.40;;;0.43;;
1751;SDS011;873;47.696;8.068;2024-01-16T08:47:33;1.60;;;1.50;;
1751;SDS011;873;47.696;8.068;2024-01-16T08:49:58;0.30;;;0.20;;
1751;SDS011;873;47.696;8.068;2024-01-16T08:52:24;0.40;;;0.40;;
1751;SDS011;873;47.696;8.068;2024-01-16T08:54:50;3.23;;;1.17;;
1751;SDS011;873;47.696;8.068;2024-01-16T08:57:15;3.23;;;1.17;;
1751;SDS011;873;47.696;8.068;2024-01-16T08:59:41;3.50;;;2.13;;
1751;SDS011;873;47.696;8.068;2024-01-16T09:02:07;2.17;;;1.70;;
1751;SDS011;873;47.696;8.068;2024-01-16T09:04:33;5.40;;;2.67;;
1751;SDS011;873;47.696;8.068;2024-01-16T09:06:59;3.67;;;1.70;;
1751;SDS011;873;47.696;8.068;2024-01-16T09:09:25;7.17;;;3.03;;
1751;SDS011;873;47.696;8.068;2024-01-16T09:11:50;3.80;;;1.70;;
1751;SDS011;873;47.696;8.068;2024-01-16T09:14:16;2.77;;;1.67;;
1751;SDS011;873;47.696;8.068;2024-01-16T09:16:42;3.00;;;1.60;;
1751;SDS011;873;47.696;8.068;2024-01-16T09:19:07;4.67;;;2.33;;
1751;SDS011;873;47.696;8.068;2024-01-16T09:21:34;6.65;;;1.73;;
1751;SDS011;873;47.696;8.068;2024-01-16T09:24:00;6.10;;;2.92;;
1751;SDS011;873;47.696;8.068;2024-01-16T09:26:25;6.40;;;2.73;;
1751;SDS011;873;47.696;8.068;2024-01-16T09:28:51;7.17;;;3.03;;
1751;SDS011;873;47.696;8.068;2024-01-16T09:31:17;9.03;;;2.83;;
1751;SDS011;873;47.696;8.068;2024-01-16T09:33:42;4.80;;;2.53;;
1751;SDS011;873;47.696;8.068;2024-01-16T09:36:08;7.50;;;2.63;;
1751;SDS011;873;47.696;8.068;2024-01-16T09:38:34;5.43;;;2.60;;
1751;SDS011;873;47.696;8.068;2024-01-16T09:41:00;8.23;;;3.00;;
1751;SDS011;873;47.696;8.068;2024-01-16T09:43:28;6.55;;;2.33;;
1751;SDS011;873;47.696;8.068;2024-01-16T09:45:54;8.50;;;3.87;;
1751;SDS011;873;47.696;8.068;2024-01-16T09:48:22;4.78;;;2.30;;
1751;SDS011;873;47.696;8.068;2024-01-16T09:50:48;6.28;;;2.75;;
1751;SDS011;873;47.696;8.068;2024-01-16T09:53:14;5.70;;;2.60;;
1751;SDS011;873;47.696;8.068;2024-01-16T09:55:39;5.70;;;2.87;;
1751;SDS011;873;47.696;8.068;2024-01-16T09:58:06;3.45;;;2.75;;
1751;SDS011;873;47.696;8.068;2024-01-16T10:00:33;3.28;;;2.35;;
1751;SDS011;873;47.696;8.068;2024-01-16T10:02:59;6.00;;;2.70;;
1751;SDS011;873;47.696;8.068;2024-01-16T10:05:26;7.20;;;2.35;;
1751;SDS011;873;47.696;8.068;2024-01-16T10:07:52;7.70;;;2.97;;
1751;SDS011;873;47.696;8.068;2024-01-16T10:10:17;6.37;;;2.67;;
1751;SDS011;873;47.696;8.068;2024-01-16T10:12:45;9.45;;;2.42;;
1751;SDS011;873;47.696;8.068;2024-01-16T10:15:11;6.28;;;3.15;;
1751;SDS011;873;47.696;8.068;2024-01-16T10:17:40;3.80;;;2.20;;
1751;SDS011;873;47.696;8.068;2024-01-16T10:20:07;6.53;;;2.67;;
1751;SDS011;873;47.696;8.068;2024-01-16T10:22:38;7.05;;;3.03;;
1751;SDS011;873;47.696;8.068;2024-01-16T10:25:12;5.47;;;2.55;;
1751;SDS011;873;47.696;8.068;2024-01-16T10:27:41;4.20;;;2.28;;
1751;SDS011;873;47.696;8.068;2024-01-16T10:30:07;4.72;;;2.10;;
1751;SDS011;873;47.696;8.068;2024-01-16T10:32:37;4.13;;;3.00;;
1751;SDS011;873;47.696;8.068;2024-01-16T10:40:42;5.15;;;3.13;;
1751;SDS011;873;47.696;8.068;2024-01-16T10:43:02;4.63;;;2.60;;
1751;SDS011;873;47.696;8.068;2024-01-16T10:45:29;5.13;;;2.42;;
1751;SDS011;873;47.696;8.068;2024-01-16T10:48:04;10.38;;;4.50;;
1751;SDS011;873;47.696;8.068;2024-01-16T10:50:31;10.88;;;3.08;;
1751;SDS011;873;47.696;8.068;2024-01-16T10:53:00;5.45;;;3.13;;
1751;SDS011;873;47.696;8.068;2024-01-16T10:55:31;6.75;;;3.13;;
1751;SDS011;873;47.696;8.068;2024-01-16T10:57:58;7.78;;;2.92;;
1751;SDS011;873;47.696;8.068;2024-01-16T11:00:25;5.38;;;2.80;;
1751;SDS011;873;47.696;8.068;2024-01-16T11:05:44;7.88;;;2.85;;
1751;SDS011;873;47.696;8.068;2024-01-16T11:08:11;6.25;;;2.50;;
1751;SDS011;873;47.696;8.068;2024-01-16T11:10:38;11.20;;;5.00;;
1751;SDS011;873;47.696;8.068;2024-01-16T11:13:05;4.43;;;2.58;;
1751;SDS011;873;47.696;8.068;2024-01-16T11:15:31;5.55;;;2.78;;
1751;SDS011;873;47.696;8.068;2024-01-16T11:17:58;7.10;;;3.17;;
1751;SDS011;873;47.696;8.068;2024-01-16T11:20:24;5.60;;;3.20;;
1751;SDS011;873;47.696;8.068;2024-01-16T11:22:51;9.90;;;4.47;;
1751;SDS011;873;47.696;8.068;2024-01-16T11:25:24;4.70;;;2.72;;
1751;SDS011;873;47.696;8.068;2024-01-16T11:27:56;6.65;;;2.95;;
1751;SDS011;873;47.696;8.068;2024-01-16T11:30:33;5.33;;;2.70;;
1751;SDS011;873;47.696;8.068;2024-01-16T11:32:59;3.87;;;2.37;;
1751;SDS011;873;47.696;8.068;2024-01-16T11:35:32;6.43;;;3.10;;
1751;SDS011;873;47.696;8.068;2024-01-16T11:40:40;4.63;;;2.40;;
1751;SDS011;873;47.696;8.068;2024-01-16T11:46:00;2.90;;;1.93;;
1751;SDS011;873;47.696;8.068;2024-01-16T11:48:30;4.77;;;2.80;;
1751;SDS011;873;47.696;8.068;2024-01-16T11:50:55;10.63;;;3.53;;
1751;SDS011;873;47.696;8.068;2024-01-16T11:53:31;6.17;;;3.10;;
1751;SDS011;873;47.696;8.068;2024-01-16T12:01:14;4.93;;;3.10;;
1751;SDS011;873;47.696;8.068;2024-01-16T12:03:42;3.97;;;2.30;;
1751;SDS011;873;47.696;8.068;2024-01-16T12:06:08;5.60;;;3.10;;
1751;SDS011;873;47.696;8.068;2024-01-16T12:08:34;4.00;;;2.57;;
1751;SDS011;873;47.696;8.068;2024-01-16T12:11:02;5.07;;;2.50;;
1751;SDS011;873;47.696;8.068;2024-01-16T12:13:28;7.03;;;2.83;;
1751;SDS011;873;47.696;8.068;2024-01-16T12:16:00;4.47;;;2.67;;
1751;SDS011;873;47.696;8.068;2024-01-16T12:18:26;8.13;;;3.03;;
1751;SDS011;873;47.696;8.068;2024-01-16T12:20:52;3.13;;;2.30;;
1751;SDS011;873;47.696;8.068;2024-01-16T12:23:17;5.63;;;2.83;;
1751;SDS011;873;47.696;8.068;2024-01-16T12:25:45;6.77;;;2.93;;
1751;SDS011;873;47.696;8.068;2024-01-16T12:28:11;5.63;;;2.00;;
1751;SDS011;873;47.696;8.068;2024-01-16T12:30:38;5.23;;;2.63;;
1751;SDS011;873;47.696;8.068;2024-01-16T12:35:37;6.73;;;3.37;;
1751;SDS011;873;47.696;8.068;2024-01-16T12:38:10;2.97;;;2.27;;
1751;SDS011;873;47.696;8.068;2024-01-16T12:40:39;3.47;;;2.10;;
1751;SDS011;873;47.696;8.068;2024-01-16T12:43:06;8.83;;;2.20;;
1751;SDS011;873;47.696;8.068;2024-01-16T12:45:32;5.07;;;3.00;;
1751;SDS011;873;47.696;8.068;2024-01-16T12:47:59;5.30;;;2.10;;
1751;SDS011;873;47.696;8.068;2024-01-16T12:50:26;5.60;;;3.30;;
1751;SDS011;873;47.696;8.068;2024-01-16T12:53:08;3.73;;;2.27;;
1751;SDS011;873;47.696;8.068;2024-01-16T12:55:39;5.50;;;2.60;;
1751;SDS011;873;47.696;8.068;2024-01-16T12:58:18;3.40;;;2.17;;
1751;SDS011;873;47.696;8.068;2024-01-16T13:00:45;3.90;;;2.77;;
1751;SDS011;873;47.696;8.068;2024-01-16T13:03:18;5.57;;;2.60;;
1751;SDS011;873;47.696;8.068;2024-01-16T13:05:45;5.30;;;2.93;;
1751;SDS011;873;47.696;8.068;2024-01-16T13:08:18;3.73;;;2.20;;
1751;SDS011;873;47.696;8.068;2024-01-16T13:10:44;4.47;;;3.13;;
1751;SDS011;873;47.696;8.068;2024-01-16T13:13:11;5.00;;;2.30;;
1751;SDS011;873;47.696;8.068;2024-01-16T13:15:43;5.73;;;3.17;;
1751;SDS011;873;47.696;8.068;2024-01-16T13:20:45;5.37;;;2.23;;
1751;SDS011;873;47.696;8.068;2024-01-16T13:23:12;3.43;;;1.93;;
1751;SDS011;873;47.696;8.068;2024-01-16T13:25:39;5.93;;;2.83;;
1751;SDS011;873;47.696;8.068;2024-01-16T13:28:05;4.13;;;2.53;;
1751;SDS011;873;47.696;8.068;2024-01-16T13:30:32;4.87;;;2.67;;
1751;SDS011;873;47.696;8.068;2024-01-16T13:32:58;4.77;;;2.50;;
1751;SDS011;873;47.696;8.068;2024-01-16T13:35:24;4.50;;;2.83;;
1751;SDS011;873;47.696;8.068;2024-01-16T13:37:49;5.17;;;2.53;;
1751;SDS011;873;47.696;8.068;2024-01-16T13:40:15;4.73;;;2.60;;
1751;SDS011;873;47.696;8.068;2024-01-16T13:42:44;4.23;;;2.53;;
1751;SDS011;873;47.696;8.068;2024-01-16T13:45:10;3.47;;;2.40;;
1751;SDS011;873;47.696;8.068;2024-01-16T13:47:38;4.73;;;2.90;;
1751;SDS011;873;47.696;8.068;2024-01-16T13:50:06;5.87;;;3.00;;
1751;SDS011;873;47.696;8.068;2024-01-16T13:52:32;4.47;;;2.63;;
1751;SDS011;873;47.696;8.068;2024-01-16T13:54:59;5.03;;;3.00;;
1751;SDS011;873;47.696;8.068;2024-01-16T13:57:27;2.20;;;1.50;;
1751;SDS011;873;47.696;8.068;2024-01-16T13:59:52;2.47;;;2.20;;
1751;SDS011;873;47.696;8.068;2024-01-16T14:02:18;4.10;;;2.60;;
1751;SDS011;873;47.696;8.068;2024-01-16T14:04:44;3.73;;;2.20;;
1751;SDS011;873;47.696;8.068;2024-01-16T14:07:09;1.63;;;1.20;;
1751;SDS011;873;47.696;8.068;2024-01-16T14:09:35;4.07;;;1.67;;
1751;SDS011;873;47.696;8.068;2024-01-16T14:12:01;3.00;;;1.90;;
1751;SDS011;873;47.696;8.068;2024-01-16T14:14:27;2.30;;;1.40;;
1751;SDS011;873;47.696;8.068;2024-01-16T14:16:52;1.00;;;0.83;;
1751;SDS011;873;47.696;8.068;2024-01-16T14:19:19;1.73;;;1.10;;
1751;SDS011;873;47.696;8.068;2024-01-16T14:21:45;2.07;;;0.80;;
1751;SDS011;873;47.696;8.068;2024-01-16T14:24:13;6.87;;;4.63;;
1751;SDS011;873;47.696;8.068;2024-01-16T14:26:38;1.13;;;1.03;;
1751;SDS011;873;47.696;8.068;2024-01-16T14:29:09;1.70;;;0.87;;
1751;SDS011;873;47.696;8.068;2024-01-16T14:31:35;1.40;;;0.67;;
1751;SDS011;873;47.696;8.068;2024-01-16T14:34:01;1.40;;;0.90;;
1751;SDS011;873;47.696;8.068;2024-01-16T14:36:27;3.23;;;1.07;;
1751;SDS011;873;47.696;8.068;2024-01-16T14:38:52;2.37;;;0.90;;
1751;SDS011;873;47.696;8.068;2024-01-16T14:41:21;1.60;;;0.70;;
1751;SDS011;873;47.696;8.068;2024-01-16T14:43:47;1.00;;;0.70;;
1751;SDS011;873;47.696;8.068;2024-01-16T14:46:13;3.00;;;1.03;;
1751;SDS011;873;47.696;8.068;2024-01-16T14:48:44;1.37;;;0.50;;
1751;SDS011;873;47.696;8.068;2024-01-16T14:51:11;1.13;;;0.43;;
1751;SDS011;873;47.696;8.068;2024-01-16T14:53:36;1.40;;;0.90;;
1751;SDS011;873;47.696;8.068;2024-01-16T14:56:02;3.20;;;1.47;;
1751;SDS011;873;47.696;8.068;2024-01-16T14:58:30;2.43;;;1.60;;
1751;SDS011;873;47.696;8.068;2024-01-16T15:00:56;2.53;;;1.10;;
1751;SDS011;873;47.696;8.068;2024-01-16T15:03:22;1.37;;;1.03;;
1751;SDS011;873;47.696;8.068;2024-01-16T15:05:49;3.30;;;1.87;;
1751;SDS011;873;47.696;8.068;2024-01-16T15:08:16;3.57;;;1.57;;
1751;SDS011;873;47.696;8.068;2024-01-16T15:10:41;7.77;;;2.30;;
1751;SDS011;873;47.696;8.068;2024-01-16T15:13:07;3.97;;;2.10;;
1751;SDS011;873;47.696;8.068;2024-01-16T15:15:33;3.77;;;2.30;;
1751;SDS011;873;47.696;8.068;2024-01-16T15:17:59;3.27;;;2.07;;
1751;SDS011;873;47.696;8.068;2024-01-16T15:20:24;2.87;;;1.97;;
1751;SDS011;873;47.696;8.068;2024-01-16T15:22:50;3.93;;;1.73;;
1751;SDS011;873;47.696;8.068;2024-01-16T15:25:18;4.30;;;1.50;;
1751;SDS011;873;47.696;8.068;2024-01-16T15:27:47;4.03;;;1.83;;
1751;SDS011;873;47.696;8.068;2024-01-16T15:30:18;2.63;;;1.50;;
1751;SDS011;873;47.696;8.068;2024-01-16T15:32:47;4.10;;;1.93;;
1751;SDS011;873;47.696;8.068;2024-01-16T15:35:14;4.23;;;2.40;;
1751;SDS011;873;47.696;8.068;2024-01-16T15:37:40;3.47;;;1.87;;
1751;SDS011;873;47.696;8.068;2024-01-16T15:40:10;4.85;;;1.85;;
1751;SDS011;873;47.696;8.068;2024-01-16T15:42:37;5.10;;;2.50;;
1751;SDS011;873;47.696;8.068;2024-01-16T15:45:05;3.90;;;2.33;;
1751;SDS011;873;47.696;8.068;2024-01-16T15:47:37;2.08;;;1.60;;
1751;SDS011;873;47.696;8.068;2024-01-16T15:50:03;2.72;;;1.90;;